createdAt,value
2022-11-05T00:02:23.770Z,100953.31
2022-11-05T00:05:09.733Z,100957.31
2022-11-05T00:07:57.313Z,100952.44
2022-11-05T00:10:29.250Z,100957.44
2022-11-05T00:13:18.476Z,100949.44
2022-11-05T00:16:04.486Z,100950.44
2022-11-05T00:18:32.262Z,100954.44
2022-11-05T00:20:59.651Z,100953.06
2022-11-05T00:23:45.833Z,100954.59
2022-11-05T00:26:13.387Z,100951.19
2022-11-05T00:28:41.828Z,100952.66
2022-11-05T00:31:10.031Z,100959.16
2022-11-05T00:33:37.878Z,100954.53
2022-11-05T00:36:05.834Z,100948.38
2022-11-05T00:38:33.151Z,100948.38
2022-11-05T00:41:01.309Z,100964.00
2022-11-05T00:43:47.485Z,100965.56
2022-11-05T00:46:14.930Z,100969.72
2022-11-05T00:49:00.848Z,100969.34
2022-11-05T00:51:28.269Z,100966.72
2022-11-05T00:53:55.858Z,100973.25
2022-11-05T00:56:23.170Z,100974.28
2022-11-05T00:58:50.872Z,100969.28
2022-11-05T01:01:20.908Z,100963.19
2022-11-05T01:03:51.693Z,100967.06
2022-11-05T01:06:19.822Z,100960.28
2022-11-05T01:08:47.551Z,100973.84
2022-11-05T01:11:33.499Z,100972.16
2022-11-05T01:14:05.237Z,100980.59
2022-11-05T01:16:33.547Z,100980.84
2022-11-05T01:19:01.308Z,100985.44
2022-11-05T01:21:30.628Z,100979.66
2022-11-05T01:23:58.098Z,100986.91
2022-11-05T01:26:26.406Z,100986.47
2022-11-05T01:28:54.445Z,100984.53
2022-11-05T01:31:22.949Z,100998.38
2022-11-05T01:33:51.124Z,101003.34
2022-11-05T01:36:19.186Z,101003.69
2022-11-05T01:38:47.106Z,101003.59
2022-11-05T01:41:14.797Z,101007.56
2022-11-05T01:44:00.335Z,101000.72
2022-11-05T01:46:29.013Z,101012.97
2022-11-05T01:49:02.761Z,100998.97
2022-11-05T01:51:30.548Z,101010.94
2022-11-05T01:54:05.469Z,101001.59
2022-11-05T01:56:35.519Z,101000.44
2022-11-05T01:59:04.130Z,101007.28
2022-11-05T02:01:31.651Z,101011.50
2022-11-05T02:04:00.184Z,101008.50
2022-11-05T02:06:27.810Z,101017.72
2022-11-05T02:08:57.113Z,101021.72
2022-11-05T02:11:24.795Z,101022.78
2022-11-05T02:13:54.892Z,101034.22
2022-11-05T02:16:41.994Z,101035.69
2022-11-05T02:19:13.732Z,101039.28
2022-11-05T02:22:01.599Z,101040.59
2022-11-05T02:24:32.268Z,101041.84
2022-11-05T02:27:04.096Z,101042.28
2022-11-05T02:29:43.585Z,101042.06
2022-11-05T02:32:17.234Z,101041.19
2022-11-05T02:34:59.254Z,101040.59
2022-11-05T02:37:47.021Z,101048.59
2022-11-05T02:40:14.494Z,101046.97
2022-11-05T02:42:45.393Z,101055.34
2022-11-05T02:45:12.817Z,101051.75
2022-11-05T02:47:59.089Z,101058.19
2022-11-05T02:50:29.591Z,101062.50
2022-11-05T02:52:57.009Z,101057.97
2022-11-05T02:55:27.442Z,101061.16
2022-11-05T02:57:54.853Z,101055.31
2022-11-05T03:00:34.686Z,101052.28
2022-11-05T03:03:02.296Z,101055.56
2022-11-05T03:05:31.380Z,101057.03
2022-11-05T03:07:59.763Z,101052.41
2022-11-05T03:10:27.158Z,101046.72
2022-11-05T03:13:06.470Z,101038.19
2022-11-05T03:15:36.968Z,101040.88
2022-11-05T03:18:07.455Z,101045.78
2022-11-05T03:20:35.091Z,101046.94
2022-11-05T03:23:08.748Z,101049.88
2022-11-05T03:25:40.721Z,101048.22
2022-11-05T03:28:08.177Z,101045.53
2022-11-05T03:30:36.119Z,101054.84
2022-11-05T03:33:14.147Z,101048.88
2022-11-05T03:35:43.210Z,101045.03
2022-11-05T03:38:11.127Z,101044.59
2022-11-05T03:40:38.636Z,101050.53
2022-11-05T03:43:07.528Z,101054.72
2022-11-05T03:45:39.474Z,101047.00
2022-11-05T03:48:06.933Z,101054.06
2022-11-05T03:50:54.264Z,101054.25
2022-11-05T03:53:23.026Z,101055.75
2022-11-05T03:55:56.627Z,101048.16
2022-11-05T03:58:23.979Z,101048.00
2022-11-05T04:00:51.582Z,101047.53
2022-11-05T04:03:19.153Z,101059.41
2022-11-05T04:06:06.727Z,101068.22
2022-11-05T04:08:52.717Z,101066.44
2022-11-05T04:11:38.908Z,101068.50
2022-11-05T04:14:08.439Z,101066.84
2022-11-05T04:16:55.100Z,101061.84
2022-11-05T04:19:41.444Z,101076.53
2022-11-05T04:22:27.577Z,101076.56
2022-11-05T04:24:55.084Z,101078.66
2022-11-05T04:27:22.625Z,101089.59
2022-11-05T04:30:08.893Z,101085.69
2022-11-05T04:32:36.762Z,101096.38
2022-11-05T04:35:04.219Z,101094.25
2022-11-05T04:37:32.590Z,101095.31
2022-11-05T04:40:00.123Z,101095.31
2022-11-05T04:42:27.966Z,101100.44
2022-11-05T04:44:55.692Z,101103.47
2022-11-05T04:47:23.022Z,101102.69
2022-11-05T04:49:52.022Z,101097.53
2022-11-05T04:52:19.700Z,101094.44
2022-11-05T04:54:47.087Z,101099.91
2022-11-05T04:57:14.581Z,101103.00
2022-11-05T04:59:43.019Z,101098.84
2022-11-05T05:02:10.818Z,101103.53
2022-11-05T05:04:40.865Z,101098.19
2022-11-05T05:07:08.194Z,101100.50
2022-11-05T05:09:36.438Z,101109.03
2022-11-05T05:12:03.812Z,101102.03
2022-11-05T05:14:31.419Z,101102.66
2022-11-05T05:16:59.357Z,101104.81
2022-11-05T05:19:27.021Z,101110.69
2022-11-05T05:21:54.728Z,101118.34
2022-11-05T05:24:25.069Z,101123.94
2022-11-05T05:26:52.606Z,101122.97
2022-11-05T05:29:19.915Z,101131.84
2022-11-05T05:31:47.494Z,101142.72
2022-11-05T05:34:15.124Z,101136.38
2022-11-05T05:36:42.469Z,101148.16
2022-11-05T05:39:11.242Z,101153.25
2022-11-05T05:41:38.740Z,101166.44
2022-11-05T05:44:06.369Z,101162.38
2022-11-05T05:46:33.748Z,101158.25
2022-11-05T05:49:01.199Z,101159.41
2022-11-05T05:51:28.834Z,101171.06
2022-11-05T05:53:56.281Z,101172.25
2022-11-05T05:56:23.841Z,101174.88
2022-11-05T05:58:51.877Z,101178.50
2022-11-05T06:01:20.257Z,101192.97
2022-11-05T06:03:48.206Z,101202.69
2022-11-05T06:06:16.256Z,101204.91
2022-11-05T06:08:43.704Z,101198.25
2022-11-05T06:11:11.273Z,101203.47
2022-11-05T06:13:41.639Z,101206.47
2022-11-05T06:16:10.296Z,101209.84
2022-11-05T06:18:38.209Z,101200.75
2022-11-05T06:21:09.763Z,101212.81
2022-11-05T06:23:39.885Z,101204.53
2022-11-05T06:26:11.404Z,101211.78
2022-11-05T06:28:39.761Z,101215.50
2022-11-05T06:31:07.485Z,101208.50
2022-11-05T06:33:34.905Z,101207.56
2022-11-05T06:36:02.436Z,101214.41
2022-11-05T06:38:31.685Z,101214.63
2022-11-05T06:40:59.679Z,101216.91
2022-11-05T06:43:27.339Z,101219.50
2022-11-05T06:45:55.432Z,101214.63
2022-11-05T06:48:22.925Z,101220.41
2022-11-05T06:50:51.437Z,101211.69
2022-11-05T06:53:18.910Z,101209.81
2022-11-05T06:55:47.987Z,101206.44
2022-11-05T06:58:15.547Z,101215.41
2022-11-05T07:00:45.192Z,101207.56
2022-11-05T07:03:13.089Z,101220.66
2022-11-05T07:05:45.808Z,101218.22
2022-11-05T07:08:13.639Z,101219.00
2022-11-05T07:10:42.804Z,101222.63
2022-11-05T07:13:10.463Z,101228.16
2022-11-05T07:15:38.567Z,101220.78
2022-11-05T07:18:08.537Z,101222.63
2022-11-05T07:20:40.191Z,101228.94
2022-11-05T07:23:09.039Z,101214.31
2022-11-05T07:25:36.798Z,101207.53
2022-11-05T07:28:04.433Z,101199.09
2022-11-05T07:30:31.984Z,101198.06
2022-11-05T07:33:01.394Z,101208.38
2022-11-05T07:35:29.394Z,101200.56
2022-11-05T07:37:58.820Z,101203.16
2022-11-05T07:40:27.054Z,101207.03
2022-11-05T07:42:59.148Z,101202.31
2022-11-05T07:45:26.912Z,101213.44
2022-11-05T07:47:59.062Z,101202.13
2022-11-05T07:50:27.271Z,101212.38
2022-11-05T07:52:59.329Z,101208.97
2022-11-05T07:55:27.048Z,101207.44
2022-11-05T07:57:55.009Z,101209.66
2022-11-05T08:00:23.286Z,101207.81
2022-11-05T08:03:08.673Z,101213.94
2022-11-05T08:05:37.807Z,101222.63
2022-11-05T08:08:07.192Z,101224.13
2022-11-05T08:10:35.019Z,101231.09
2022-11-05T08:13:08.086Z,101224.19
2022-11-05T08:15:36.471Z,101223.94
2022-11-05T08:18:05.428Z,101223.88
2022-11-05T08:20:33.552Z,101218.78
2022-11-05T08:23:02.710Z,101228.56
2022-11-05T08:25:30.455Z,101228.44
2022-11-05T08:27:59.505Z,101226.06
2022-11-05T08:30:27.635Z,101232.44
2022-11-05T08:32:59.164Z,101235.78
2022-11-05T08:35:29.941Z,101240.78
2022-11-05T08:38:00.884Z,101237.03
2022-11-05T08:40:29.087Z,101232.59
2022-11-05T08:42:58.498Z,101240.91
2022-11-05T08:45:26.384Z,101239.44
2022-11-05T08:48:00.990Z,101230.31
2022-11-05T08:50:29.857Z,101238.50
2022-11-05T08:52:57.333Z,101231.25
2022-11-05T08:55:24.857Z,101236.63
2022-11-05T08:57:58.925Z,101235.38
2022-11-05T09:00:26.784Z,101242.13
2022-11-05T09:02:54.801Z,101238.88
2022-11-05T09:05:22.257Z,101245.38
2022-11-05T09:07:50.526Z,101250.22
2022-11-05T09:10:18.028Z,101252.03
2022-11-05T09:12:45.399Z,101245.13
2022-11-05T09:15:13.305Z,101252.75
2022-11-05T09:17:40.723Z,101250.69
2022-11-05T09:20:08.500Z,101254.69
2022-11-05T09:22:39.192Z,101249.63
2022-11-05T09:25:10.794Z,101249.44
2022-11-05T09:27:38.099Z,101258.19
2022-11-05T09:30:05.731Z,101258.41
2022-11-05T09:32:33.186Z,101260.00
2022-11-05T09:35:01.361Z,101264.81
2022-11-05T09:37:29.077Z,101265.75
2022-11-05T09:39:56.502Z,101264.72
2022-11-05T09:42:31.439Z,101252.78
2022-11-05T09:44:59.843Z,101265.16
2022-11-05T09:47:34.762Z,101262.28
2022-11-05T09:50:03.119Z,101261.00
2022-11-05T09:52:31.057Z,101267.22
2022-11-05T09:54:59.617Z,101271.28
2022-11-05T09:57:36.545Z,101273.50
2022-11-05T10:00:05.468Z,101276.72
2022-11-05T10:02:49.143Z,101272.84
2022-11-05T10:05:16.676Z,101260.66
2022-11-05T10:07:48.414Z,101268.47
2022-11-05T10:10:42.116Z,101274.34
2022-11-05T10:13:30.448Z,101264.28
2022-11-05T10:16:09.908Z,101262.22
2022-11-05T10:18:40.353Z,101261.59
2022-11-05T10:21:07.989Z,101262.53
2022-11-05T10:23:35.318Z,101263.13
2022-11-05T10:26:03.959Z,101267.69
2022-11-05T10:28:32.122Z,101260.41
2022-11-05T20:35:50.600Z,101758.94
2022-11-05T20:38:17.968Z,101761.78
2022-11-05T20:40:45.469Z,101766.84
2022-11-05T20:43:13.443Z,101770.38
2022-11-05T20:45:41.101Z,101772.06
2022-11-05T20:48:08.763Z,101764.22
2022-11-05T20:50:39.490Z,101767.06
2022-11-05T20:53:06.913Z,101770.63
2022-11-05T20:55:39.809Z,101764.63
2022-11-05T20:58:07.268Z,101760.44
2022-11-05T21:00:35.084Z,101762.69
2022-11-05T21:03:02.738Z,101768.34
2022-11-05T21:05:35.363Z,101772.41
2022-11-05T21:08:03.135Z,101766.19
2022-11-05T21:10:32.810Z,101768.69
2022-11-05T21:13:00.383Z,101763.22
2022-11-05T21:15:27.984Z,101764.88
2022-11-05T21:17:56.805Z,101774.03
2022-11-05T21:20:24.483Z,101766.13
2022-11-05T21:22:51.819Z,101767.13
2022-11-05T21:25:20.062Z,101765.56
2022-11-05T21:27:47.666Z,101766.28
2022-11-05T21:30:15.093Z,101759.56
2022-11-05T21:32:44.901Z,101767.41
2022-11-05T21:35:12.428Z,101764.97
2022-11-05T21:37:39.781Z,101759.31
2022-11-05T21:40:07.518Z,101765.13
2022-11-05T21:42:35.829Z,101768.34
2022-11-05T21:45:03.833Z,101768.47
2022-11-05T21:47:31.573Z,101774.09
2022-11-05T21:49:59.317Z,101776.09
2022-11-05T21:52:45.346Z,101766.31
2022-11-05T21:55:22.173Z,101776.56
2022-11-05T21:58:09.915Z,101776.56
2022-11-05T22:00:38.320Z,101779.41
2022-11-05T22:03:05.732Z,101772.22
2022-11-05T22:05:35.519Z,101765.47
2022-11-05T22:08:03.607Z,101772.66
2022-11-05T22:10:31.057Z,101771.63
2022-11-05T22:12:58.380Z,101777.94
2022-11-05T22:15:26.432Z,101779.31
2022-11-05T22:17:54.304Z,101794.84
2022-11-05T22:20:22.531Z,101799.56
2022-11-05T22:22:50.495Z,101790.13
2022-11-05T22:25:18.528Z,101795.56
2022-11-05T22:27:47.244Z,101798.22
2022-11-05T22:30:14.592Z,101792.63
2022-11-05T22:32:44.208Z,101800.00
2022-11-05T22:35:12.241Z,101801.16
2022-11-05T22:37:40.739Z,101808.47
2022-11-05T22:40:09.787Z,101807.50
2022-11-05T22:42:38.011Z,101804.13
2022-11-05T22:45:05.806Z,101818.97
2022-11-05T22:47:33.635Z,101813.63
2022-11-05T22:50:03.075Z,101815.38
2022-11-05T22:52:31.132Z,101814.25
2022-11-05T22:54:58.396Z,101821.22
2022-11-05T22:57:25.822Z,101824.97
2022-11-05T22:59:54.443Z,101825.13
2022-11-05T23:02:23.537Z,101831.88
2022-11-05T23:04:51.708Z,101833.00
2022-11-05T23:07:37.737Z,101830.72
2022-11-05T23:10:25.132Z,101842.59
2022-11-05T23:12:55.435Z,101840.50
2022-11-05T23:15:41.487Z,101839.91
2022-11-05T23:18:28.214Z,101840.56
2022-11-05T23:21:16.099Z,101838.53
2022-11-05T23:24:09.122Z,101835.75
2022-11-05T23:26:50.773Z,101838.41
2022-11-05T23:29:22.533Z,101836.00
2022-11-05T23:32:08.685Z,101838.91
2022-11-05T23:34:36.393Z,101845.44
2022-11-05T23:37:22.546Z,101844.41
2022-11-05T23:39:50.755Z,101857.59
2022-11-05T23:42:36.891Z,101857.50
2022-11-05T23:45:23.304Z,101865.97
2022-11-05T23:48:13.168Z,101851.69
2022-11-05T23:50:41.366Z,101859.88
2022-11-05T23:53:08.813Z,101851.47
2022-11-05T23:55:38.403Z,101853.44
2022-11-05T23:58:07.616Z,101856.28
